sensor_id;sensor_type;location;lat;lon;timestamp;P1;durP1;ratioP1;P2;durP2;ratioP2
7835;SDS011;3963;42.658;23.298;2023-01-23T00:02:15;7.23;;;4.00;;
7835;SDS011;3963;42.658;23.298;2023-01-23T00:04:42;5.83;;;4.27;;
7835;SDS011;3963;42.658;23.298;2023-01-23T00:07:09;5.17;;;4.00;;
7835;SDS011;3963;42.658;23.298;2023-01-23T00:09:36;5.17;;;4.00;;
7835;SDS011;3963;42.658;23.298;2023-01-23T00:12:03;5.90;;;3.93;;
7835;SDS011;3963;42.658;23.298;2023-01-23T00:14:31;6.77;;;4.47;;
7835;SDS011;3963;42.658;23.298;2023-01-23T00:16:58;8.53;;;4.03;;
7835;SDS011;3963;42.658;23.298;2023-01-23T00:19:25;5.10;;;4.27;;
7835;SDS011;3963;42.658;23.298;2023-01-23T00:21:52;5.93;;;4.30;;
7835;SDS011;3963;42.658;23.298;2023-01-23T00:24:19;6.57;;;4.70;;
7835;SDS011;3963;42.658;23.298;2023-01-23T00:26:45;7.80;;;4.77;;
7835;SDS011;3963;42.658;23.298;2023-01-23T00:29:13;9.50;;;5.23;;
7835;SDS011;3963;42.658;23.298;2023-01-23T00:31:41;8.10;;;4.53;;
7835;SDS011;3963;42.658;23.298;2023-01-23T00:34:09;8.40;;;4.90;;
7835;SDS011;3963;42.658;23.298;2023-01-23T00:36:38;9.03;;;4.93;;
7835;SDS011;3963;42.658;23.298;2023-01-23T00:39:07;8.70;;;5.07;;
7835;SDS011;3963;42.658;23.298;2023-01-23T00:41:37;6.30;;;5.00;;
7835;SDS011;3963;42.658;23.298;2023-01-23T00:44:04;7.90;;;4.97;;
7835;SDS011;3963;42.658;23.298;2023-01-23T00:46:30;8.33;;;4.70;;
7835;SDS011;3963;42.658;23.298;2023-01-23T00:49:00;5.47;;;4.47;;
7835;SDS011;3963;42.658;23.298;2023-01-23T00:51:27;6.67;;;4.13;;
7835;SDS011;3963;42.658;23.298;2023-01-23T00:53:53;6.03;;;3.97;;
7835;SDS011;3963;42.658;23.298;2023-01-23T00:56:21;7.10;;;3.87;;
7835;SDS011;3963;42.658;23.298;2023-01-23T00:58:48;5.83;;;3.80;;
7835;SDS011;3963;42.658;23.298;2023-01-23T01:01:15;7.57;;;4.40;;
7835;SDS011;3963;42.658;23.298;2023-01-23T01:03:42;4.50;;;3.50;;
7835;SDS011;3963;42.658;23.298;2023-01-23T01:06:11;6.37;;;4.30;;
7835;SDS011;3963;42.658;23.298;2023-01-23T01:08:38;7.97;;;4.63;;
7835;SDS011;3963;42.658;23.298;2023-01-23T01:11:05;6.43;;;4.37;;
7835;SDS011;3963;42.658;23.298;2023-01-23T01:13:32;8.23;;;3.87;;
7835;SDS011;3963;42.658;23.298;2023-01-23T01:15:59;7.03;;;4.00;;
7835;SDS011;3963;42.658;23.298;2023-01-23T01:18:26;5.53;;;3.30;;
7835;SDS011;3963;42.658;23.298;2023-01-23T01:20:54;3.47;;;3.07;;
7835;SDS011;3963;42.658;23.298;2023-01-23T01:23:23;7.00;;;3.70;;
7835;SDS011;3963;42.658;23.298;2023-01-23T01:25:51;4.30;;;3.47;;
7835;SDS011;3963;42.658;23.298;2023-01-23T01:28:17;5.53;;;3.37;;
7835;SDS011;3963;42.658;23.298;2023-01-23T01:30:45;7.27;;;3.80;;
7835;SDS011;3963;42.658;23.298;2023-01-23T01:33:11;3.73;;;3.40;;
7835;SDS011;3963;42.658;23.298;2023-01-23T01:35:38;4.63;;;3.37;;
7835;SDS011;3963;42.658;23.298;2023-01-23T01:38:06;4.13;;;3.43;;
7835;SDS011;3963;42.658;23.298;2023-01-23T01:40:35;6.77;;;3.60;;
7835;SDS011;3963;42.658;23.298;2023-01-23T01:43:04;5.93;;;3.80;;
7835;SDS011;3963;42.658;23.298;2023-01-23T01:48:33;5.53;;;3.20;;
7835;SDS011;3963;42.658;23.298;2023-01-23T01:51:02;6.70;;;3.83;;
7835;SDS011;3963;42.658;23.298;2023-01-23T01:53:34;8.27;;;4.00;;
7835;SDS011;3963;42.658;23.298;2023-01-23T01:56:04;5.43;;;4.00;;
7835;SDS011;3963;42.658;23.298;2023-01-23T01:58:35;4.40;;;3.60;;
7835;SDS011;3963;42.658;23.298;2023-01-23T02:01:02;6.23;;;3.57;;
7835;SDS011;3963;42.658;23.298;2023-01-23T02:03:30;5.37;;;3.20;;
7835;SDS011;3963;42.658;23.298;2023-01-23T02:05:56;5.90;;;3.70;;
7835;SDS011;3963;42.658;23.298;2023-01-23T02:08:26;4.50;;;3.70;;
7835;SDS011;3963;42.658;23.298;2023-01-23T02:10:56;6.77;;;4.10;;
7835;SDS011;3963;42.658;23.298;2023-01-23T02:13:27;5.67;;;4.03;;
7835;SDS011;3963;42.658;23.298;2023-01-23T02:16:00;5.50;;;3.80;;
7835;SDS011;3963;42.658;23.298;2023-01-23T02:18:29;6.47;;;3.97;;
7835;SDS011;3963;42.658;23.298;2023-01-23T02:20:58;5.43;;;3.80;;
7835;SDS011;3963;42.658;23.298;2023-01-23T02:23:31;10.00;;;4.97;;
7835;SDS011;3963;42.658;23.298;2023-01-23T02:26:08;8.70;;;4.60;;
7835;SDS011;3963;42.658;23.298;2023-01-23T02:28:39;7.07;;;3.83;;
7835;SDS011;3963;42.658;23.298;2023-01-23T02:31:08;6.40;;;4.50;;
7835;SDS011;3963;42.658;23.298;2023-01-23T02:33:42;7.00;;;4.47;;
7835;SDS011;3963;42.658;23.298;2023-01-23T02:36:16;7.20;;;4.27;;
7835;SDS011;3963;42.658;23.298;2023-01-23T02:38:46;6.53;;;4.53;;
7835;SDS011;3963;42.658;23.298;2023-01-23T02:41:22;7.57;;;4.10;;
7835;SDS011;3963;42.658;23.298;2023-01-23T02:43:54;7.77;;;4.30;;
7835;SDS011;3963;42.658;23.298;2023-01-23T02:46:24;7.23;;;4.47;;
7835;SDS011;3963;42.658;23.298;2023-01-23T02:48:51;6.40;;;4.30;;
7835;SDS011;3963;42.658;23.298;2023-01-23T02:51:18;6.50;;;3.83;;
7835;SDS011;3963;42.658;23.298;2023-01-23T02:53:46;7.23;;;3.50;;
7835;SDS011;3963;42.658;23.298;2023-01-23T02:56:13;7.07;;;3.97;;
7835;SDS011;3963;42.658;23.298;2023-01-23T02:58:42;7.10;;;3.60;;
7835;SDS011;3963;42.658;23.298;2023-01-23T03:01:26;6.97;;;3.90;;
7835;SDS011;3963;42.658;23.298;2023-01-23T03:03:53;8.53;;;4.67;;
7835;SDS011;3963;42.658;23.298;2023-01-23T03:06:28;5.87;;;4.13;;
7835;SDS011;3963;42.658;23.298;2023-01-23T03:09:00;7.27;;;4.10;;
7835;SDS011;3963;42.658;23.298;2023-01-23T03:11:32;6.27;;;3.77;;
7835;SDS011;3963;42.658;23.298;2023-01-23T03:14:01;6.27;;;4.10;;
7835;SDS011;3963;42.658;23.298;2023-01-23T03:16:28;5.63;;;3.80;;
7835;SDS011;3963;42.658;23.298;2023-01-23T03:18:54;6.87;;;3.93;;
7835;SDS011;3963;42.658;23.298;2023-01-23T03:21:25;5.03;;;3.87;;
7835;SDS011;3963;42.658;23.298;2023-01-23T03:23:52;6.17;;;3.60;;
7835;SDS011;3963;42.658;23.298;2023-01-23T03:26:19;5.70;;;3.80;;
7835;SDS011;3963;42.658;23.298;2023-01-23T03:28:46;6.87;;;3.93;;
7835;SDS011;3963;42.658;23.298;2023-01-23T03:31:32;5.57;;;3.93;;
7835;SDS011;3963;42.658;23.298;2023-01-23T03:33:58;4.63;;;3.37;;
7835;SDS011;3963;42.658;23.298;2023-01-23T03:36:25;5.63;;;3.73;;
7835;SDS011;3963;42.658;23.298;2023-01-23T03:38:52;5.67;;;3.37;;
7835;SDS011;3963;42.658;23.298;2023-01-23T03:41:36;4.43;;;3.67;;
7835;SDS011;3963;42.658;23.298;2023-01-23T03:44:06;3.80;;;3.40;;
7835;SDS011;3963;42.658;23.298;2023-01-23T03:46:34;3.47;;;2.70;;
7835;SDS011;3963;42.658;23.298;2023-01-23T03:49:01;5.43;;;3.37;;
7835;SDS011;3963;42.658;23.298;2023-01-23T03:51:28;4.13;;;3.37;;
7835;SDS011;3963;42.658;23.298;2023-01-23T03:53:55;5.13;;;3.30;;
7835;SDS011;3963;42.658;23.298;2023-01-23T03:56:21;4.90;;;3.37;;
7835;SDS011;3963;42.658;23.298;2023-01-23T03:58:48;4.97;;;3.80;;
7835;SDS011;3963;42.658;23.298;2023-01-23T04:01:15;5.63;;;3.53;;
7835;SDS011;3963;42.658;23.298;2023-01-23T04:03:43;6.57;;;3.53;;
7835;SDS011;3963;42.658;23.298;2023-01-23T04:06:10;5.70;;;3.80;;
7835;SDS011;3963;42.658;23.298;2023-01-23T04:08:37;5.17;;;3.67;;
7835;SDS011;3963;42.658;23.298;2023-01-23T04:11:04;4.67;;;3.60;;
7835;SDS011;3963;42.658;23.298;2023-01-23T04:13:32;5.47;;;4.37;;
7835;SDS011;3963;42.658;23.298;2023-01-23T04:15:59;6.10;;;4.13;;
7835;SDS011;3963;42.658;23.298;2023-01-23T04:18:28;6.03;;;3.83;;
7835;SDS011;3963;42.658;23.298;2023-01-23T04:20:56;5.57;;;4.03;;
7835;SDS011;3963;42.658;23.298;2023-01-23T04:23:24;7.40;;;3.77;;
7835;SDS011;3963;42.658;23.298;2023-01-23T04:25:51;6.10;;;4.40;;
7835;SDS011;3963;42.658;23.298;2023-01-23T04:28:18;6.63;;;4.50;;
7835;SDS011;3963;42.658;23.298;2023-01-23T04:30:45;5.40;;;3.77;;
7835;SDS011;3963;42.658;23.298;2023-01-23T04:33:12;6.70;;;4.00;;
7835;SDS011;3963;42.658;23.298;2023-01-23T04:35:39;5.00;;;3.90;;
7835;SDS011;3963;42.658;23.298;2023-01-23T04:38:07;5.20;;;3.90;;
7835;SDS011;3963;42.658;23.298;2023-01-23T04:40:34;6.83;;;3.90;;
7835;SDS011;3963;42.658;23.298;2023-01-23T04:43:01;6.17;;;4.23;;
7835;SDS011;3963;42.658;23.298;2023-01-23T04:45:28;5.23;;;3.93;;
7835;SDS011;3963;42.658;23.298;2023-01-23T04:47:54;5.30;;;3.83;;
7835;SDS011;3963;42.658;23.298;2023-01-23T04:50:21;4.97;;;3.67;;
7835;SDS011;3963;42.658;23.298;2023-01-23T04:52:48;5.13;;;2.83;;
7835;SDS011;3963;42.658;23.298;2023-01-23T04:55:16;4.70;;;3.47;;
7835;SDS011;3963;42.658;23.298;2023-01-23T04:57:43;5.77;;;3.57;;
7835;SDS011;3963;42.658;23.298;2023-01-23T05:00:10;6.63;;;3.53;;
7835;SDS011;3963;42.658;23.298;2023-01-23T05:02:38;4.67;;;3.17;;
7835;SDS011;3963;42.658;23.298;2023-01-23T05:05:05;6.47;;;3.80;;
7835;SDS011;3963;42.658;23.298;2023-01-23T05:07:33;4.40;;;3.70;;
7835;SDS011;3963;42.658;23.298;2023-01-23T05:09:59;4.40;;;3.27;;
7835;SDS011;3963;42.658;23.298;2023-01-23T05:12:27;6.53;;;3.37;;
7835;SDS011;3963;42.658;23.298;2023-01-23T05:14:56;6.37;;;3.97;;
7835;SDS011;3963;42.658;23.298;2023-01-23T05:17:23;8.17;;;4.70;;
7835;SDS011;3963;42.658;23.298;2023-01-23T05:19:49;7.73;;;4.53;;
7835;SDS011;3963;42.658;23.298;2023-01-23T05:22:16;6.93;;;4.30;;
7835;SDS011;3963;42.658;23.298;2023-01-23T05:24:43;8.27;;;4.57;;
7835;SDS011;3963;42.658;23.298;2023-01-23T05:27:10;5.60;;;4.13;;
7835;SDS011;3963;42.658;23.298;2023-01-23T05:29:39;6.70;;;4.73;;
7835;SDS011;3963;42.658;23.298;2023-01-23T05:32:06;7.53;;;4.53;;
7835;SDS011;3963;42.658;23.298;2023-01-23T05:34:33;8.57;;;4.13;;
7835;SDS011;3963;42.658;23.298;2023-01-23T05:36:59;6.63;;;3.90;;
7835;SDS011;3963;42.658;23.298;2023-01-23T05:39:27;8.77;;;4.47;;
7835;SDS011;3963;42.658;23.298;2023-01-23T05:41:56;4.13;;;3.03;;
7835;SDS011;3963;42.658;23.298;2023-01-23T05:44:23;6.17;;;3.33;;
7835;SDS011;3963;42.658;23.298;2023-01-23T05:46:52;3.83;;;2.83;;
7835;SDS011;3963;42.658;23.298;2023-01-23T05:49:18;5.00;;;3.07;;
7835;SDS011;3963;42.658;23.298;2023-01-23T05:51:45;5.07;;;3.17;;
7835;SDS011;3963;42.658;23.298;2023-01-23T05:54:12;3.37;;;2.80;;
7835;SDS011;3963;42.658;23.298;2023-01-23T05:56:39;4.40;;;2.93;;
7835;SDS011;3963;42.658;23.298;2023-01-23T05:59:05;5.27;;;3.07;;
7835;SDS011;3963;42.658;23.298;2023-01-23T06:01:32;3.73;;;3.00;;
7835;SDS011;3963;42.658;23.298;2023-01-23T06:04:01;4.00;;;2.90;;
7835;SDS011;3963;42.658;23.298;2023-01-23T06:06:27;5.17;;;3.43;;
7835;SDS011;3963;42.658;23.298;2023-01-23T06:08:54;6.43;;;2.87;;
7835;SDS011;3963;42.658;23.298;2023-01-23T06:11:24;3.83;;;2.77;;
7835;SDS011;3963;42.658;23.298;2023-01-23T06:13:50;4.50;;;3.43;;
7835;SDS011;3963;42.658;23.298;2023-01-23T06:16:17;3.20;;;2.70;;
7835;SDS011;3963;42.658;23.298;2023-01-23T06:18:44;2.50;;;2.17;;
7835;SDS011;3963;42.658;23.298;2023-01-23T06:21:12;4.10;;;3.00;;
7835;SDS011;3963;42.658;23.298;2023-01-23T06:23:41;3.53;;;2.40;;
7835;SDS011;3963;42.658;23.298;2023-01-23T06:26:08;4.53;;;3.00;;
7835;SDS011;3963;42.658;23.298;2023-01-23T06:28:35;2.50;;;2.10;;
7835;SDS011;3963;42.658;23.298;2023-01-23T06:31:02;4.07;;;2.77;;
7835;SDS011;3963;42.658;23.298;2023-01-23T06:33:30;4.70;;;2.93;;
7835;SDS011;3963;42.658;23.298;2023-01-23T06:35:57;5.67;;;2.80;;
7835;SDS011;3963;42.658;23.298;2023-01-23T06:38:26;5.13;;;3.33;;
7835;SDS011;3963;42.658;23.298;2023-01-23T06:40:53;6.17;;;3.07;;
7835;SDS011;3963;42.658;23.298;2023-01-23T06:43:20;5.03;;;2.90;;
7835;SDS011;3963;42.658;23.298;2023-01-23T06:45:48;5.07;;;3.80;;
7835;SDS011;3963;42.658;23.298;2023-01-23T06:48:15;6.47;;;3.73;;
7835;SDS011;3963;42.658;23.298;2023-01-23T06:50:42;6.10;;;4.03;;
7835;SDS011;3963;42.658;23.298;2023-01-23T06:53:11;7.87;;;4.63;;
7835;SDS011;3963;42.658;23.298;2023-01-23T06:55:44;6.43;;;4.43;;
7835;SDS011;3963;42.658;23.298;2023-01-23T06:58:10;7.77;;;4.80;;
7835;SDS011;3963;42.658;23.298;2023-01-23T07:00:37;9.63;;;5.03;;
7835;SDS011;3963;42.658;23.298;2023-01-23T07:03:04;10.07;;;4.83;;
7835;SDS011;3963;42.658;23.298;2023-01-23T07:05:34;10.43;;;5.63;;
7835;SDS011;3963;42.658;23.298;2023-01-23T07:08:04;8.83;;;6.37;;
7835;SDS011;3963;42.658;23.298;2023-01-23T07:10:31;10.83;;;6.00;;
7835;SDS011;3963;42.658;23.298;2023-01-23T07:13:00;9.00;;;5.00;;
7835;SDS011;3963;42.658;23.298;2023-01-23T07:15:27;11.43;;;7.27;;
7835;SDS011;3963;42.658;23.298;2023-01-23T07:17:53;12.37;;;6.13;;
7835;SDS011;3963;42.658;23.298;2023-01-23T07:20:20;12.00;;;7.07;;
7835;SDS011;3963;42.658;23.298;2023-01-23T07:22:51;10.27;;;7.20;;
7835;SDS011;3963;42.658;23.298;2023-01-23T07:25:18;12.93;;;8.90;;
7835;SDS011;3963;42.658;23.298;2023-01-23T07:27:45;17.07;;;9.60;;
7835;SDS011;3963;42.658;23.298;2023-01-23T07:30:14;18.93;;;8.40;;
7835;SDS011;3963;42.658;23.298;2023-01-23T07:32:41;14.67;;;8.67;;
7835;SDS011;3963;42.658;23.298;2023-01-23T07:35:08;12.97;;;7.87;;
7835;SDS011;3963;42.658;23.298;2023-01-23T07:37:35;13.33;;;7.47;;
7835;SDS011;3963;42.658;23.298;2023-01-23T07:40:02;15.53;;;8.27;;
7835;SDS011;3963;42.658;23.298;2023-01-23T07:42:29;17.17;;;8.70;;
7835;SDS011;3963;42.658;23.298;2023-01-23T07:44:56;17.20;;;7.97;;
7835;SDS011;3963;42.658;23.298;2023-01-23T07:47:24;14.27;;;8.13;;
7835;SDS011;3963;42.658;23.298;2023-01-23T07:49:51;13.47;;;8.30;;
7835;SDS011;3963;42.658;23.298;2023-01-23T07:52:18;12.20;;;6.80;;
7835;SDS011;3963;42.658;23.298;2023-01-23T07:54:45;15.70;;;7.90;;
7835;SDS011;3963;42.658;23.298;2023-01-23T07:57:11;14.40;;;7.47;;
7835;SDS011;3963;42.658;23.298;2023-01-23T07:59:38;13.87;;;6.63;;
7835;SDS011;3963;42.658;23.298;2023-01-23T08:02:05;10.93;;;6.47;;
7835;SDS011;3963;42.658;23.298;2023-01-23T08:04:36;14.30;;;7.67;;
7835;SDS011;3963;42.658;23.298;2023-01-23T08:07:03;9.83;;;5.97;;
7835;SDS011;3963;42.658;23.298;2023-01-23T08:09:30;11.63;;;6.33;;
7835;SDS011;3963;42.658;23.298;2023-01-23T08:11:56;15.90;;;7.97;;
7835;SDS011;3963;42.658;23.298;2023-01-23T08:14:23;16.63;;;7.40;;
7835;SDS011;3963;42.658;23.298;2023-01-23T08:16:50;10.10;;;6.57;;
7835;SDS011;3963;42.658;23.298;2023-01-23T08:19:18;12.00;;;6.90;;
7835;SDS011;3963;42.658;23.298;2023-01-23T08:21:47;9.30;;;5.20;;
7835;SDS011;3963;42.658;23.298;2023-01-23T08:24:13;11.37;;;6.73;;
7835;SDS011;3963;42.658;23.298;2023-01-23T08:26:40;11.33;;;5.43;;
7835;SDS011;3963;42.658;23.298;2023-01-23T08:29:08;10.93;;;6.43;;
7835;SDS011;3963;42.658;23.298;2023-01-23T08:31:36;9.97;;;6.23;;
7835;SDS011;3963;42.658;23.298;2023-01-23T08:34:03;12.77;;;6.00;;
7835;SDS011;3963;42.658;23.298;2023-01-23T08:36:30;10.73;;;6.23;;
7835;SDS011;3963;42.658;23.298;2023-01-23T08:38:59;12.87;;;6.57;;
7835;SDS011;3963;42.658;23.298;2023-01-23T08:41:26;8.77;;;5.00;;
7835;SDS011;3963;42.658;23.298;2023-01-23T08:43:53;8.30;;;4.47;;
7835;SDS011;3963;42.658;23.298;2023-01-23T08:46:21;9.97;;;5.43;;
7835;SDS011;3963;42.658;23.298;2023-01-23T08:48:48;12.37;;;5.73;;
7835;SDS011;3963;42.658;23.298;2023-01-23T08:51:15;9.07;;;5.50;;
7835;SDS011;3963;42.658;23.298;2023-01-23T08:53:42;10.80;;;5.27;;
7835;SDS011;3963;42.658;23.298;2023-01-23T08:56:12;7.83;;;4.83;;
7835;SDS011;3963;42.658;23.298;2023-01-23T08:58:40;6.83;;;4.60;;
7835;SDS011;3963;42.658;23.298;2023-01-23T09:01:09;9.53;;;4.47;;
7835;SDS011;3963;42.658;23.298;2023-01-23T09:03:36;8.30;;;5.07;;
7835;SDS011;3963;42.658;23.298;2023-01-23T09:06:03;8.83;;;4.90;;
7835;SDS011;3963;42.658;23.298;2023-01-23T09:08:30;5.90;;;4.07;;
7835;SDS011;3963;42.658;23.298;2023-01-23T09:10:58;9.77;;;5.07;;
7835;SDS011;3963;42.658;23.298;2023-01-23T09:13:27;8.37;;;5.30;;
7835;SDS011;3963;42.658;23.298;2023-01-23T09:15:53;8.10;;;5.47;;
7835;SDS011;3963;42.658;23.298;2023-01-23T09:18:20;8.00;;;4.60;;
7835;SDS011;3963;42.658;23.298;2023-01-23T09:20:48;7.90;;;4.43;;
7835;SDS011;3963;42.658;23.298;2023-01-23T09:23:15;8.10;;;4.50;;
7835;SDS011;3963;42.658;23.298;2023-01-23T09:25:42;5.17;;;4.17;;
7835;SDS011;3963;42.658;23.298;2023-01-23T09:28:09;6.30;;;3.80;;
7835;SDS011;3963;42.658;23.298;2023-01-23T09:30:38;10.53;;;4.33;;
7835;SDS011;3963;42.658;23.298;2023-01-23T09:33:05;10.27;;;4.93;;
7835;SDS011;3963;42.658;23.298;2023-01-23T09:35:33;10.30;;;5.00;;
7835;SDS011;3963;42.658;23.298;2023-01-23T09:38:00;9.33;;;5.37;;
7835;SDS011;3963;42.658;23.298;2023-01-23T09:40:32;9.60;;;5.60;;
7835;SDS011;3963;42.658;23.298;2023-01-23T09:43:02;11.33;;;5.10;;
7835;SDS011;3963;42.658;23.298;2023-01-23T09:45:40;10.50;;;5.63;;
7835;SDS011;3963;42.658;23.298;2023-01-23T09:48:15;10.87;;;5.67;;
7835;SDS011;3963;42.658;23.298;2023-01-23T09:50:51;14.90;;;7.60;;
7835;SDS011;3963;42.658;23.298;2023-01-23T09:53:21;8.20;;;5.17;;
7835;SDS011;3963;42.658;23.298;2023-01-23T09:55:52;8.63;;;5.27;;
7835;SDS011;3963;42.658;23.298;2023-01-23T09:58:26;12.40;;;6.43;;
7835;SDS011;3963;42.658;23.298;2023-01-23T10:00:57;10.97;;;5.90;;
7835;SDS011;3963;42.658;23.298;2023-01-23T10:03:25;11.33;;;6.70;;
7835;SDS011;3963;42.658;23.298;2023-01-23T10:06:00;13.63;;;6.97;;
7835;SDS011;3963;42.658;23.298;2023-01-23T10:08:41;13.00;;;7.00;;
7835;SDS011;3963;42.658;23.298;2023-01-23T10:11:21;11.33;;;6.40;;
7835;SDS011;3963;42.658;23.298;2023-01-23T10:13:58;12.87;;;6.40;;
7835;SDS011;3963;42.658;23.298;2023-01-23T10:16:39;12.13;;;7.03;;
7835;SDS011;3963;42.658;23.298;2023-01-23T10:19:16;9.40;;;5.80;;
7835;SDS011;3963;42.658;23.298;2023-01-23T10:22:00;12.33;;;6.17;;
7835;SDS011;3963;42.658;23.298;2023-01-23T10:24:38;9.70;;;6.47;;
7835;SDS011;3963;42.658;23.298;2023-01-23T10:27:15;10.93;;;5.70;;
7835;SDS011;3963;42.658;23.298;2023-01-23T10:29:45;11.93;;;4.93;;
7835;SDS011;3963;42.658;23.298;2023-01-23T10:32:22;11.60;;;5.83;;
7835;SDS011;3963;42.658;23.298;2023-01-23T10:34:52;8.60;;;6.20;;
7835;SDS011;3963;42.658;23.298;2023-01-23T10:37:28;9.53;;;6.33;;
7835;SDS011;3963;42.658;23.298;2023-01-23T10:40:04;9.10;;;5.60;;
7835;SDS011;3963;42.658;23.298;2023-01-23T10:42:35;13.30;;;7.70;;
7835;SDS011;3963;42.658;23.298;2023-01-23T10:45:03;11.67;;;7.20;;
7835;SDS011;3963;42.658;23.298;2023-01-23T10:47:33;11.53;;;7.50;;
7835;SDS011;3963;42.658;23.298;2023-01-23T10:50:01;10.57;;;7.20;;
7835;SDS011;3963;42.658;23.298;2023-01-23T10:52:35;12.17;;;7.67;;
7835;SDS011;3963;42.658;23.298;2023-01-23T10:55:04;13.03;;;7.90;;
7835;SDS011;3963;42.658;23.298;2023-01-23T10:57:52;14.73;;;8.50;;
7835;SDS011;3963;42.658;23.298;2023-01-23T11:00:21;12.73;;;6.37;;
7835;SDS011;3963;42.658;23.298;2023-01-23T11:02:54;11.33;;;7.30;;
7835;SDS011;3963;42.658;23.298;2023-01-23T11:05:32;16.03;;;6.97;;
7835;SDS011;3963;42.658;23.298;2023-01-23T11:08:02;11.13;;;7.60;;
7835;SDS011;3963;42.658;23.298;2023-01-23T11:10:29;15.23;;;8.70;;
7835;SDS011;3963;42.658;23.298;2023-01-23T11:12:56;16.63;;;7.93;;
7835;SDS011;3963;42.658;23.298;2023-01-23T11:15:25;13.43;;;8.43;;
7835;SDS011;3963;42.658;23.298;2023-01-23T11:17:56;12.87;;;8.10;;
7835;SDS011;3963;42.658;23.298;2023-01-23T11:20:27;13.13;;;7.70;;
7835;SDS011;3963;42.658;23.298;2023-01-23T11:23:02;15.67;;;8.90;;
7835;SDS011;3963;42.658;23.298;2023-01-23T11:25:31;12.73;;;7.10;;
7835;SDS011;3963;42.658;23.298;2023-01-23T11:27:59;17.57;;;8.93;;
7835;SDS011;3963;42.658;23.298;2023-01-23T11:30:33;15.23;;;8.07;;
7835;SDS011;3963;42.658;23.298;2023-01-23T11:33:11;14.13;;;9.30;;
7835;SDS011;3963;42.658;23.298;2023-01-23T11:35:51;16.63;;;9.77;;
7835;SDS011;3963;42.658;23.298;2023-01-23T11:38:25;14.97;;;8.10;;
7835;SDS011;3963;42.658;23.298;2023-01-23T11:40:55;12.87;;;7.63;;
7835;SDS011;3963;42.658;23.298;2023-01-23T11:43:22;16.67;;;9.03;;
7835;SDS011;3963;42.658;23.298;2023-01-23T11:45:55;13.80;;;8.87;;
7835;SDS011;3963;42.658;23.298;2023-01-23T11:48:45;17.43;;;9.07;;
7835;SDS011;3963;42.658;23.298;2023-01-23T11:51:25;16.47;;;7.73;;
7835;SDS011;3963;42.658;23.298;2023-01-23T11:54:03;11.67;;;7.90;;
7835;SDS011;3963;42.658;23.298;2023-01-23T11:56:50;11.83;;;8.27;;
7835;SDS011;3963;42.658;23.298;2023-01-23T11:59:29;13.73;;;8.70;;
7835;SDS011;3963;42.658;23.298;2023-01-23T12:05:25;13.60;;;7.33;;
7835;SDS011;3963;42.658;23.298;2023-01-23T12:08:15;14.37;;;7.70;;
7835;SDS011;3963;42.658;23.298;2023-01-23T12:10:52;14.70;;;8.50;;
7835;SDS011;3963;42.658;23.298;2023-01-23T12:13:42;12.00;;;6.70;;
7835;SDS011;3963;42.658;23.298;2023-01-23T12:16:23;13.30;;;8.07;;
7835;SDS011;3963;42.658;23.298;2023-01-23T12:19:04;12.43;;;8.13;;
7835;SDS011;3963;42.658;23.298;2023-01-23T12:21:41;14.00;;;8.73;;
7835;SDS011;3963;42.658;23.298;2023-01-23T12:24:23;13.40;;;7.97;;
7835;SDS011;3963;42.658;23.298;2023-01-23T12:27:03;13.47;;;8.53;;
7835;SDS011;3963;42.658;23.298;2023-01-23T12:29:51;18.13;;;9.33;;
7835;SDS011;3963;42.658;23.298;2023-01-23T12:35:29;13.10;;;7.90;;
7835;SDS011;3963;42.658;23.298;2023-01-23T12:38:17;15.13;;;9.20;;
7835;SDS011;3963;42.658;23.298;2023-01-23T12:40:49;14.30;;;8.93;;
7835;SDS011;3963;42.658;23.298;2023-01-23T12:43:25;16.60;;;8.10;;
7835;SDS011;3963;42.658;23.298;2023-01-23T12:45:59;12.00;;;7.87;;
7835;SDS011;3963;42.658;23.298;2023-01-23T12:48:33;14.83;;;8.87;;
7835;SDS011;3963;42.658;23.298;2023-01-23T12:51:07;22.40;;;10.97;;
7835;SDS011;3963;42.658;23.298;2023-01-23T12:53:40;18.67;;;10.53;;
7835;SDS011;3963;42.658;23.298;2023-01-23T12:56:12;17.07;;;10.33;;
7835;SDS011;3963;42.658;23.298;2023-01-23T12:58:44;14.87;;;9.33;;
7835;SDS011;3963;42.658;23.298;2023-01-23T13:01:32;17.17;;;10.27;;
7835;SDS011;3963;42.658;23.298;2023-01-23T13:04:11;17.60;;;9.73;;
7835;SDS011;3963;42.658;23.298;2023-01-23T13:06:51;16.30;;;9.47;;
7835;SDS011;3963;42.658;23.298;2023-01-23T13:09:28;18.80;;;11.17;;
7835;SDS011;3963;42.658;23.298;2023-01-23T13:12:08;13.70;;;9.83;;
7835;SDS011;3963;42.658;23.298;2023-01-23T13:14:43;18.17;;;9.17;;
7835;SDS011;3963;42.658;23.298;2023-01-23T13:17:30;16.17;;;8.63;;
7835;SDS011;3963;42.658;23.298;2023-01-23T13:23:22;17.07;;;8.47;;
7835;SDS011;3963;42.658;23.298;2023-01-23T13:29:02;17.17;;;9.60;;
7835;SDS011;3963;42.658;23.298;2023-01-23T13:31:32;16.90;;;10.10;;
7835;SDS011;3963;42.658;23.298;2023-01-23T13:34:02;19.53;;;11.03;;
7835;SDS011;3963;42.658;23.298;2023-01-23T13:36:50;19.27;;;11.43;;
7835;SDS011;3963;42.658;23.298;2023-01-23T13:39:25;25.10;;;12.53;;
7835;SDS011;3963;42.658;23.298;2023-01-23T13:45:22;16.77;;;10.23;;
7835;SDS011;3963;42.658;23.298;2023-01-23T13:51:06;15.10;;;8.80;;
7835;SDS011;3963;42.658;23.298;2023-01-23T13:53:42;14.97;;;9.03;;
7835;SDS011;3963;42.658;23.298;2023-01-23T13:56:28;12.90;;;8.63;;
7835;SDS011;3963;42.658;23.298;2023-01-23T13:59:23;16.63;;;8.90;;
7835;SDS011;3963;42.658;23.298;2023-01-23T14:01:57;17.50;;;8.93;;
7835;SDS011;3963;42.658;23.298;2023-01-23T14:04:54;14.77;;;9.80;;
7835;SDS011;3963;42.658;23.298;2023-01-23T14:07:38;13.63;;;9.07;;
7835;SDS011;3963;42.658;23.298;2023-01-23T14:10:20;16.23;;;8.63;;
7835;SDS011;3963;42.658;23.298;2023-01-23T14:12:50;14.37;;;9.27;;
7835;SDS011;3963;42.658;23.298;2023-01-23T14:15:27;13.93;;;8.83;;
7835;SDS011;3963;42.658;23.298;2023-01-23T14:18:17;13.37;;;8.47;;
7835;SDS011;3963;42.658;23.298;2023-01-23T14:20:58;13.00;;;7.87;;
7835;SDS011;3963;42.658;23.298;2023-01-23T14:23:27;11.63;;;7.63;;
7835;SDS011;3963;42.658;23.298;2023-01-23T14:25:57;13.57;;;7.60;;
7835;SDS011;3963;42.658;23.298;2023-01-23T14:28:25;12.67;;;7.70;;
7835;SDS011;3963;42.658;23.298;2023-01-23T14:30:56;13.03;;;8.63;;
7835;SDS011;3963;42.658;23.298;2023-01-23T14:33:27;16.73;;;8.60;;
7835;SDS011;3963;42.658;23.298;2023-01-23T14:35:54;17.77;;;9.40;;
7835;SDS011;3963;42.658;23.298;2023-01-23T14:38:23;21.07;;;11.63;;
7835;SDS011;3963;42.658;23.298;2023-01-23T14:40:54;20.00;;;10.43;;
7835;SDS011;3963;42.658;23.298;2023-01-23T14:43:21;17.80;;;10.30;;
7835;SDS011;3963;42.658;23.298;2023-01-23T14:46:04;15.20;;;9.63;;
7835;SDS011;3963;42.658;23.298;2023-01-23T14:48:40;17.27;;;9.57;;
7835;SDS011;3963;42.658;23.298;2023-01-23T14:51:14;15.77;;;9.93;;
7835;SDS011;3963;42.658;23.298;2023-01-23T14:53:49;11.90;;;8.60;;
7835;SDS011;3963;42.658;23.298;2023-01-23T14:56:18;16.93;;;9.17;;
7835;SDS011;3963;42.658;23.298;2023-01-23T14:58:49;16.07;;;8.83;;
7835;SDS011;3963;42.658;23.298;2023-01-23T15:01:16;15.30;;;9.40;;
7835;SDS011;3963;42.658;23.298;2023-01-23T15:03:53;15.10;;;9.33;;
7835;SDS011;3963;42.658;23.298;2023-01-23T15:06:21;18.50;;;10.63;;
7835;SDS011;3963;42.658;23.298;2023-01-23T15:08:49;16.93;;;10.03;;
7835;SDS011;3963;42.658;23.298;2023-01-23T15:11:17;15.40;;;9.37;;
7835;SDS011;3963;42.658;23.298;2023-01-23T15:13:52;16.93;;;9.60;;
7835;SDS011;3963;42.658;23.298;2023-01-23T15:16:26;16.77;;;10.37;;
7835;SDS011;3963;42.658;23.298;2023-01-23T15:19:03;18.43;;;11.20;;
7835;SDS011;3963;42.658;23.298;2023-01-23T15:21:34;14.93;;;9.93;;
7835;SDS011;3963;42.658;23.298;2023-01-23T15:24:04;13.93;;;9.63;;
7835;SDS011;3963;42.658;23.298;2023-01-23T15:26:43;10.83;;;7.53;;
7835;SDS011;3963;42.658;23.298;2023-01-23T15:29:16;13.10;;;8.07;;
7835;SDS011;3963;42.658;23.298;2023-01-23T15:31:44;15.17;;;8.53;;
7835;SDS011;3963;42.658;23.298;2023-01-23T15:34:18;11.00;;;7.63;;
7835;SDS011;3963;42.658;23.298;2023-01-23T15:36:49;12.83;;;8.30;;
7835;SDS011;3963;42.658;23.298;2023-01-23T15:39:20;11.90;;;7.73;;